Time;durP1;ratioP1;P1;durP2;ratioP2;P2;SDS_P1;SDS_P2;PMS_P1;PMS_P2;Temp;Humidity;BMP_temperature;BMP_pressure;BME280_temperature;BME280_humidity;BME280_pressure;Samples;Min_cycle;Max_cycle;Signal;HPM_P1;HPM_P2
2022/07/16 00:03:48;;;;;;;;;;;;;;;;;;5031063;28;20282;-84
2022/07/16 00:06:13;;;;;;;;;;;;;;;;;;5032339;28;19924;-84
2022/07/16 00:08:41;;;;;;;;;;;;;;;;;;5017690;28;19917;-84
2022/07/16 00:11:07;;;;;;;;;;;;;;;;;;5032565;28;20334;-84
2022/07/16 00:13:32;;;;;;;;;;;;;;;;;;5037113;28;19917;-84
2022/07/16 00:16:00;;;;;;;;;;;;;;;;;;5013998;28;19917;-84
2022/07/16 00:21:09;;;;;;;;;;;;;;;;;;5032179;28;19939;-84
2022/07/16 00:23:34;;;;;;;;;;;;;;;;;;5030199;28;20842;-84
2022/07/16 00:26:00;;;;;;;;;;;;;;;;;;5016948;28;20032;-84
2022/07/16 00:28:25;;;;;;;;;;;;;;;;;;5013930;28;20408;-84
2022/07/16 00:31:02;;;;;;;;;;;;;;;;;;5032774;28;20334;-84
2022/07/16 00:33:29;;;;;;;;;;;;;;;;;;5030086;28;19925;-84
2022/07/16 00:35:58;;;;;;;;;;;;;;;;;;5034313;28;19955;-84
2022/07/16 00:38:23;;;;;;;;;;;;;;;;;;5029954;28;19917;-84
2022/07/16 00:40:51;;;;;;;;;;;;;;;;;;5032368;28;20451;-84
2022/07/16 00:43:22;;;;;;;;;;;;;;;;;;5034204;28;19928;-84
2022/07/16 00:45:57;;;;;;;;;;;;;;;;;;5035436;28;19921;-84
2022/07/16 00:48:22;;;;;;;;;;;;;;;;;;5031396;28;19928;-84
2022/07/16 00:50:47;;;;;;;;;;;;;;;;;;5034773;28;19917;-84
2022/07/16 00:53:13;;;;;;;;;;;;;;;;;;5036865;28;19917;-85
2022/07/16 00:55:38;;;;;;;;;;;;;;;;;;5031776;28;19983;-84
2022/07/16 00:58:03;;;;;;;;;;;;;;;;;;5031575;28;20014;-84
2022/07/16 01:00:32;;;;;;;;;;;;;;;;;;5035554;28;19921;-84
2022/07/16 01:03:00;;;;;;;;;;;;;;;;;;5039150;28;19925;-85
2022/07/16 01:05:25;;;;;;;;;;;;;;;;;;5037403;28;19913;-84
2022/07/16 01:07:50;;;;;;;;;;;;;;;;;;5037034;28;19917;-84
2022/07/16 01:10:18;;;;;;;;;;;;;;;;;;5039522;28;20007;-84
2022/07/16 01:12:51;;;;;;;;;;;;;;;;;;5039307;28;19921;-84
2022/07/16 01:15:26;;;;;;;;;;;;;;;;;;5036026;28;19983;-84
2022/07/16 01:17:53;;;;;;;;;;;;;;;;;;5040916;28;19944;-84
2022/07/16 01:20:22;;;;;;;;;;;;;;;;;;5037629;28;19953;-84
2022/07/16 01:22:47;;;;;;;;;;;;;;;;;;5038634;28;19943;-84
2022/07/16 01:25:12;;;;;;;;;;;;;;;;;;5038675;28;20382;-84
2022/07/16 01:27:38;;;;;;;;;;;;;;;;;;5041624;28;20774;-84
2022/07/16 01:30:03;;;;;;;;;;;;;;;;;;5037137;28;19963;-84
2022/07/16 01:32:36;;;;;;;;;;;;;;;;;;5039184;28;20003;-84
2022/07/16 01:35:02;;;;;;;;;;;;;;;;;;5042494;28;19913;-84
2022/07/16 01:37:27;;;;;;;;;;;;;;;;;;5031450;28;20506;-84
2022/07/16 01:39:52;;;;;;;;;;;;;;;;;;5034765;28;19920;-85
2022/07/16 01:42:17;;;;;;;;;;;;;;;;;;5036187;28;19960;-84
2022/07/16 01:44:43;;;;;;;;;;;;;;;;;;5038933;28;20073;-84
2022/07/16 01:47:08;;;;;;;;;;;;;;;;;;5039099;28;19913;-85
2022/07/16 01:49:33;;;;;;;;;;;;;;;;;;5038058;28;19936;-84
2022/07/16 01:51:58;;;;;;;;;;;;;;;;;;5037993;28;19928;-85
2022/07/16 01:54:23;;;;;;;;;;;;;;;;;;5039361;28;19913;-84
2022/07/16 01:56:48;;;;;;;;;;;;;;;;;;5040720;28;19944;-86
2022/07/16 01:59:14;;;;;;;;;;;;;;;;;;5039314;28;19913;-85
2022/07/16 02:01:39;;;;;;;;;;;;;;;;;;5037802;28;20436;-84
2022/07/16 02:04:04;;;;;;;;;;;;;;;;;;5042442;28;19965;-84
2022/07/16 02:06:29;;;;;;;;;;;;;;;;;;5042005;28;20289;-83
2022/07/16 02:08:54;;;;;;;;;;;;;;;;;;5039381;28;19947;-83
2022/07/16 02:11:20;;;;;;;;;;;;;;;;;;5046984;28;19913;-85
2022/07/16 02:13:45;;;;;;;;;;;;;;;;;;5040905;28;19999;-84
2022/07/16 02:16:10;;;;;;;;;;;;;;;;;;5038095;28;20027;-84
2022/07/16 02:18:35;;;;;;;;;;;;;;;;;;5043470;28;20674;-84
2022/07/16 02:21:00;;;;;;;;;;;;;;;;;;5039152;28;20011;-86
2022/07/16 02:23:25;;;;;;;;;;;;;;;;;;5039959;28;19929;-84
2022/07/16 02:25:51;;;;;;;;;;;;;;;;;;5039226;28;19917;-85
2022/07/16 02:28:16;;;;;;;;;;;;;;;;;;5042377;28;19917;-85
2022/07/16 02:30:41;;;;;;;;;;;;;;;;;;5043007;28;19919;-85
2022/07/16 02:33:06;;;;;;;;;;;;;;;;;;5037138;28;19923;-84
2022/07/16 02:35:31;;;;;;;;;;;;;;;;;;5040863;28;19927;-84
2022/07/16 02:37:57;;;;;;;;;;;;;;;;;;5036916;28;19913;-83
2022/07/16 02:40:22;;;;;;;;;;;;;;;;;;5044449;28;19924;-84
2022/07/16 02:42:47;;;;;;;;;;;;;;;;;;5041232;28;20280;-83
2022/07/16 02:45:12;;;;;;;;;;;;;;;;;;5046326;28;19948;-85
2022/07/16 02:47:37;;;;;;;;;;;;;;;;;;5038797;28;19994;-83
2022/07/16 02:50:03;;;;;;;;;;;;;;;;;;5042024;28;19927;-83
2022/07/16 02:52:28;;;;;;;;;;;;;;;;;;5043072;28;19920;-84
2022/07/16 02:54:53;;;;;;;;;;;;;;;;;;5041447;28;19924;-84
2022/07/16 02:57:18;;;;;;;;;;;;;;;;;;5036580;28;19943;-85
2022/07/16 02:59:43;;;;;;;;;;;;;;;;;;5042388;28;19920;-85
2022/07/16 03:02:09;;;;;;;;;;;;;;;;;;5040952;28;20390;-85
2022/07/16 03:04:34;;;;;;;;;;;;;;;;;;5044250;28;20003;-84
2022/07/16 03:06:59;;;;;;;;;;;;;;;;;;5039421;28;20294;-86
2022/07/16 03:09:24;;;;;;;;;;;;;;;;;;5039908;28;19974;-84
2022/07/16 03:11:49;;;;;;;;;;;;;;;;;;5041756;28;19963;-84
2022/07/16 03:14:14;;;;;;;;;;;;;;;;;;5038808;28;19917;-85
2022/07/16 03:16:40;;;;;;;;;;;;;;;;;;5043814;28;19914;-85
2022/07/16 03:19:05;;;;;;;;;;;;;;;;;;5043120;28;19917;-84
2022/07/16 03:21:30;;;;;;;;;;;;;;;;;;5041032;28;19921;-87
2022/07/16 03:23:55;;;;;;;;;;;;;;;;;;5038086;28;19939;-84
2022/07/16 03:26:20;;;;;;;;;;;;;;;;;;5039858;28;19966;-84
2022/07/16 03:28:46;;;;;;;;;;;;;;;;;;5042238;28;19962;-84
2022/07/16 03:31:11;;;;;;;;;;;;;;;;;;5045264;28;19913;-84
2022/07/16 03:33:36;;;;;;;;;;;;;;;;;;5047773;28;20052;-85
2022/07/16 03:36:01;;;;;;;;;;;;;;;;;;5044572;28;19920;-84
2022/07/16 03:41:11;;;;;;;;;;;;;;;;;;5040974;28;19921;-84
2022/07/16 03:43:36;;;;;;;;;;;;;;;;;;5045704;28;19912;-84
2022/07/16 03:46:01;;;;;;;;;;;;;;;;;;5038905;28;19963;-84
2022/07/16 03:48:28;;;;;;;;;;;;;;;;;;5039868;28;19948;-84
2022/07/16 03:50:54;;;;;;;;;;;;;;;;;;5037380;28;19960;-84
2022/07/16 03:53:19;;;;;;;;;;;;;;;;;;5032784;28;19913;-84
2022/07/16 03:55:44;;;;;;;;;;;;;;;;;;5030542;28;20090;-84
2022/07/16 03:58:09;;;;;;;;;;;;;;;;;;5036045;28;19920;-84
2022/07/16 04:00:34;;;;;;;;;;;;;;;;;;5039271;28;19912;-86
2022/07/16 04:03:00;;;;;;;;;;;;;;;;;;5036522;28;19982;-85
2022/07/16 04:05:27;;;;;;;;;;;;;;;;;;5039308;28;19924;-84
2022/07/16 04:08:04;;;;;;;;;;;;;;;;;;5044750;28;19952;-85
2022/07/16 04:10:29;;;;;;;;;;;;;;;;;;5049350;28;19913;-84
2022/07/16 04:12:54;;;;;;;;;;;;;;;;;;5048485;28;20279;-83
2022/07/16 04:15:19;;;;;;;;;;;;;;;;;;5041200;28;19948;-86
2022/07/16 04:17:44;;;;;;;;;;;;;;;;;;5044432;28;20016;-84
2022/07/16 04:20:10;;;;;;;;;;;;;;;;;;5046024;28;19999;-86
2022/07/16 04:22:35;;;;;;;;;;;;;;;;;;5040433;28;20170;-84
2022/07/16 04:25:00;;;;;;;;;;;;;;;;;;5020353;28;20349;-85
2022/07/16 04:27:25;;;;;;;;;;;;;;;;;;5037142;28;19920;-84
2022/07/16 04:29:50;;;;;;;;;;;;;;;;;;5036454;28;19921;-84
2022/07/16 04:32:15;;;;;;;;;;;;;;;;;;5039262;28;19937;-84
2022/07/16 04:34:41;;;;;;;;;;;;;;;;;;5039928;28;20007;-85
2022/07/16 04:37:06;;;;;;;;;;;;;;;;;;5048535;28;20325;-84
2022/07/16 04:39:31;;;;;;;;;;;;;;;;;;5041632;28;19987;-86
2022/07/16 04:41:56;;;;;;;;;;;;;;;;;;5038233;28;19916;-84
2022/07/16 04:44:21;;;;;;;;;;;;;;;;;;5033593;28;20390;-84
2022/07/16 04:46:47;;;;;;;;;;;;;;;;;;5038296;28;19917;-85
2022/07/16 04:49:12;;;;;;;;;;;;;;;;;;5044561;28;19948;-84
2022/07/16 04:51:37;;;;;;;;;;;;;;;;;;5036690;28;20488;-84
2022/07/16 04:54:02;;;;;;;;;;;;;;;;;;5036554;28;19916;-84
2022/07/16 04:56:27;;;;;;;;;;;;;;;;;;5036106;28;20306;-86
2022/07/16 04:58:52;;;;;;;;;;;;;;;;;;5034935;28;20346;-84
2022/07/16 05:01:18;;;;;;;;;;;;;;;;;;5035433;28;20286;-83
2022/07/16 05:03:43;;;;;;;;;;;;;;;;;;5034361;28;20051;-84
2022/07/16 05:06:08;;;;;;;;;;;;;;;;;;5036274;28;19999;-83
2022/07/16 05:08:36;;;;;;;;;;;;;;;;;;5035658;28;19916;-83
2022/07/16 05:11:01;;;;;;;;;;;;;;;;;;5038734;28;19928;-85
2022/07/16 05:13:26;;;;;;;;;;;;;;;;;;5023257;28;19924;-83
2022/07/16 05:15:51;;;;;;;;;;;;;;;;;;5034781;28;20378;-85
2022/07/16 05:18:16;;;;;;;;;;;;;;;;;;5034065;28;20012;-85
2022/07/16 05:20:44;;;;;;;;;;;;;;;;;;5037725;28;19958;-85
2022/07/16 05:23:09;;;;;;;;;;;;;;;;;;5036377;28;19917;-85
2022/07/16 05:25:34;;;;;;;;;;;;;;;;;;5018493;28;19920;-84
2022/07/16 05:27:59;;;;;;;;;;;;;;;;;;5038567;28;19917;-84
2022/07/16 05:30:24;;;;;;;;;;;;;;;;;;5035975;28;20595;-84
2022/07/16 05:32:50;;;;;;;;;;;;;;;;;;5033555;28;19913;-85
2022/07/16 05:35:15;;;;;;;;;;;;;;;;;;5034868;28;19921;-83
2022/07/16 05:37:40;;;;;;;;;;;;;;;;;;5034606;28;19917;-82
2022/07/16 05:40:05;;;;;;;;;;;;;;;;;;5034563;28;19917;-84
2022/07/16 05:42:31;;;;;;;;;;;;;;;;;;5034092;28;20406;-84
2022/07/16 05:44:56;;;;;;;;;;;;;;;;;;5020952;28;20703;-86
2022/07/16 05:47:21;;;;;;;;;;;;;;;;;;5049962;28;19917;-82
2022/07/16 05:49:46;;;;;;;;;;;;;;;;;;5048027;28;19944;-83
2022/07/16 05:52:11;;;;;;;;;;;;;;;;;;5046153;28;19913;-82
2022/07/16 05:54:36;;;;;;;;;;;;;;;;;;5036410;28;20428;-83
2022/07/16 05:57:02;;;;;;;;;;;;;;;;;;5047741;28;20326;-85
2022/07/16 05:59:27;;;;;;;;;;;;;;;;;;5048222;28;19969;-85
2022/07/16 06:01:52;;;;;;;;;;;;;;;;;;5046967;28;19924;-84
2022/07/16 06:04:17;;;;;;;;;;;;;;;;;;5045235;28;19921;-84
2022/07/16 06:06:42;;;;;;;;;;;;;;;;;;5029648;28;19976;-84
2022/07/16 06:09:08;;;;;;;;;;;;;;;;;;5048102;28;19917;-84
2022/07/16 06:11:33;;;;;;;;;;;;;;;;;;5045947;28;19916;-84
2022/07/16 06:13:58;;;;;;;;;;;;;;;;;;5051734;28;19913;-84
2022/07/16 06:16:23;;;;;;;;;;;;;;;;;;5045351;28;20321;-85
2022/07/16 06:18:48;;;;;;;;;;;;;;;;;;5042903;28;20089;-86
2022/07/16 06:21:14;;;;;;;;;;;;;;;;;;5046095;28;19917;-84
2022/07/16 06:23:39;;;;;;;;;;;;;;;;;;5050321;28;19913;-86
2022/07/16 06:26:04;;;;;;;;;;;;;;;;;;5045365;28;19941;-84
2022/07/16 06:28:29;;;;;;;;;;;;;;;;;;5050864;28;20000;-84
2022/07/16 06:30:54;;;;;;;;;;;;;;;;;;5046239;28;19913;-84
2022/07/16 06:33:19;;;;;;;;;;;;;;;;;;5044401;28;19925;-84
2022/07/16 06:35:45;;;;;;;;;;;;;;;;;;5049143;28;20287;-84
2022/07/16 06:38:10;;;;;;;;;;;;;;;;;;5047144;28;19940;-84
2022/07/16 06:40:35;;;;;;;;;;;;;;;;;;5044474;28;19913;-84
2022/07/16 06:43:00;;;;;;;;;;;;;;;;;;5052513;28;19932;-86
2022/07/16 06:45:26;;;;;;;;;;;;;;;;;;5047778;28;19940;-84
2022/07/16 06:47:51;;;;;;;;;;;;;;;;;;5045472;28;20379;-84
2022/07/16 06:50:16;;;;;;;;;;;;;;;;;;5042110;28;19975;-84
2022/07/16 06:52:42;;;;;;;;;;;;;;;;;;5043079;28;20004;-85
2022/07/16 06:55:07;;;;;;;;;;;;;;;;;;5052553;28;20441;-86
2022/07/16 06:57:33;;;;;;;;;;;;;;;;;;5047597;28;19959;-84
2022/07/16 06:59:58;;;;;;;;;;;;;;;;;;5044350;28;20299;-86
2022/07/16 07:02:23;;;;;;;;;;;;;;;;;;5040370;28;19921;-84
2022/07/16 07:04:48;;;;;;;;;;;;;;;;;;5044243;28;19944;-85
2022/07/16 07:07:13;;;;;;;;;;;;;;;;;;5048164;28;19924;-84
2022/07/16 07:09:38;;;;;;;;;;;;;;;;;;5047046;28;20405;-84
2022/07/16 07:12:04;;;;;;;;;;;;;;;;;;5050033;28;20102;-84
2022/07/16 07:14:29;;;;;;;;;;;;;;;;;;5047298;28;20325;-84
2022/07/16 07:16:54;;;;;;;;;;;;;;;;;;5030838;28;19921;-85
2022/07/16 07:19:19;;;;;;;;;;;;;;;;;;5043501;28;19921;-84
2022/07/16 07:21:44;;;;;;;;;;;;;;;;;;5046880;28;19917;-85
2022/07/16 07:24:10;;;;;;;;;;;;;;;;;;5045277;28;19919;-84
2022/07/16 07:26:35;;;;;;;;;;;;;;;;;;5045587;28;20349;-83
2022/07/16 07:29:00;;;;;;;;;;;;;;;;;;5049841;28;19920;-85
2022/07/16 07:31:25;;;;;;;;;;;;;;;;;;5046941;28;19921;-83
2022/07/16 07:33:50;;;;;;;;;;;;;;;;;;5043753;28;19928;-84
2022/07/16 07:36:16;;;;;;;;;;;;;;;;;;5043728;28;19917;-84
2022/07/16 07:38:41;;;;;;;;;;;;;;;;;;5043415;28;19943;-83
2022/07/16 07:41:06;;;;;;;;;;;;;;;;;;5044095;28;19963;-85
2022/07/16 07:43:31;;;;;;;;;;;;;;;;;;5044295;28;19916;-85
2022/07/16 07:45:57;;;;;;;;;;;;;;;;;;5043507;28;19912;-87
2022/07/16 07:48:22;;;;;;;;;;;;;;;;;;5048524;28;19963;-85
2022/07/16 07:50:47;;;;;;;;;;;;;;;;;;5046703;28;19960;-85
2022/07/16 07:53:12;;;;;;;;;;;;;;;;;;5016464;23;19945;-84
2022/07/16 07:55:38;;;;;;;;;;;;;;;;;;4967198;28;19917;-86
2022/07/16 07:58:03;;;;;;;;;;;;;;;;;;4979798;28;19922;-85
2022/07/16 08:00:28;;;;;;;;;;;;;;;;;;4985443;28;19925;-85
2022/07/16 08:02:54;;;;;;;;;;;;;;;;;;4995679;28;19918;-86
2022/07/16 08:05:20;;;;;;;;;;;;;;;;;;5004697;28;19929;-85
2022/07/16 08:07:45;;;;;;;;;;;;;;;;;;5003919;28;19910;-85
2022/07/16 08:10:10;;;;;;;;;;;;;;;;;;5002936;28;19920;-85
2022/07/16 08:12:35;;;;;;;;;;;;;;;;;;5000058;28;20005;-84
2022/07/16 08:15:00;;;;;;;;;;;;;;;;;;5001086;28;20021;-84
2022/07/16 08:17:25;;;;;;;;;;;;;;;;;;5002940;28;19913;-84
2022/07/16 08:19:51;;;;;;;;;;;;;;;;;;5002663;28;19944;-84
2022/07/16 08:22:16;;;;;;;;;;;;;;;;;;5002534;28;19933;-85
2022/07/16 08:27:25;;;;;;;;;;;;;;;;;;4999789;28;19975;-85
2022/07/16 08:29:51;;;;;;;;;;;;;;;;;;4998593;28;19948;-85
2022/07/16 08:32:16;;;;;;;;;;;;;;;;;;5003244;28;20673;-85
2022/07/16 08:34:42;;;;;;;;;;;;;;;;;;5001213;28;19940;-86
2022/07/16 08:37:07;;;;;;;;;;;;;;;;;;5001836;28;19976;-85
2022/07/16 08:39:32;;;;;;;;;;;;;;;;;;5002843;28;19921;-85
2022/07/16 08:41:57;;;;;;;;;;;;;;;;;;5001304;28;20421;-85
2022/07/16 08:44:22;;;;;;;;;;;;;;;;;;5002378;28;19917;-86
2022/07/16 08:46:48;;;;;;;;;;;;;;;;;;5003138;28;19929;-85
2022/07/16 08:49:13;;;;;;;;;;;;;;;;;;4998919;28;19929;-85
2022/07/16 08:51:38;;;;;;;;;;;;;;;;;;5004569;28;19956;-85
2022/07/16 08:54:03;;;;;;;;;;;;;;;;;;4995583;28;19922;-86
2022/07/16 08:56:28;;;;;;;;;;;;;;;;;;5003531;28;19924;-87
2022/07/16 08:58:54;;;;;;;;;;;;;;;;;;5003580;28;19919;-86
2022/07/16 09:01:19;;;;;;;;;;;;;;;;;;5001749;28;20422;-86
2022/07/16 09:03:44;;;;;;;;;;;;;;;;;;5001644;28;19937;-86
2022/07/16 09:06:09;;;;;;;;;;;;;;;;;;4998887;28;19928;-87
2022/07/16 09:08:34;;;;;;;;;;;;;;;;;;5001723;28;20651;-87
2022/07/16 09:10:59;;;;;;;;;;;;;;;;;;4999984;28;19914;-86
2022/07/16 09:13:25;;;;;;;;;;;;;;;;;;4999697;28;20486;-86
2022/07/16 09:15:50;;;;;;;;;;;;;;;;;;5004552;28;19944;-85
2022/07/16 09:18:15;;;;;;;;;;;;;;;;;;5002300;28;20346;-86
2022/07/16 09:20:41;;;;;;;;;;;;;;;;;;5003070;28;19914;-87
2022/07/16 09:23:06;;;;;;;;;;;;;;;;;;5002771;28;19972;-86
2022/07/16 09:25:31;;;;;;;;;;;;;;;;;;5000567;28;19918;-86
2022/07/16 09:27:57;;;;;;;;;;;;;;;;;;5001733;28;19940;-88
2022/07/16 09:30:22;;;;;;;;;;;;;;;;;;5005263;28;20055;-85
2022/07/16 09:35:18;;;;;;;;;;;;;;;;;;5038492;28;19971;-85
2022/07/16 09:37:43;;;;;;;;;;;;;;;;;;5042888;28;20358;-86
2022/07/16 09:40:08;;;;;;;;;;;;;;;;;;5037972;28;19917;-86
2022/07/16 09:42:33;;;;;;;;;;;;;;;;;;5040284;28;19963;-86
2022/07/16 09:44:58;;;;;;;;;;;;;;;;;;5030053;28;19917;-84
2022/07/16 09:47:23;;;;;;;;;;;;;;;;;;5031608;23;19929;-86
2022/07/16 09:49:49;;;;;;;;;;;;;;;;;;5030901;28;19925;-84
2022/07/16 09:52:14;;;;;;;;;;;;;;;;;;5027738;28;20412;-83
2022/07/16 09:54:39;;;;;;;;;;;;;;;;;;5030004;28;20420;-86
2022/07/16 09:57:04;;;;;;;;;;;;;;;;;;5025313;28;20008;-86
2022/07/16 09:59:30;;;;;;;;;;;;;;;;;;5024061;28;19948;-87
2022/07/16 10:01:55;;;;;;;;;;;;;;;;;;5024924;28;19939;-87
2022/07/16 10:04:23;;;;;;;;;;;;;;;;;;5024124;28;20080;-86
2022/07/16 10:06:48;;;;;;;;;;;;;;;;;;5020221;28;19971;-86
2022/07/16 10:09:13;;;;;;;;;;;;;;;;;;5019167;28;19921;-84
2022/07/16 10:11:38;;;;;;;;;;;;;;;;;;5028743;28;20383;-85
2022/07/16 10:14:04;;;;;;;;;;;;;;;;;;5027521;28;19924;-84
2022/07/16 10:16:29;;;;;;;;;;;;;;;;;;5023149;28;20366;-83
2022/07/16 10:18:54;;;;;;;;;;;;;;;;;;5028641;28;19923;-84
2022/07/16 10:21:19;;;;;;;;;;;;;;;;;;5026134;28;19972;-85
2022/07/16 10:23:45;;;;;;;;;;;;;;;;;;5001479;28;19920;-86
2022/07/16 10:26:10;;;;;;;;;;;;;;;;;;5018270;28;19924;-86
2022/07/16 10:28:35;;;;;;;;;;;;;;;;;;5016102;28;19921;-84
2022/07/16 10:31:00;;;;;;;;;;;;;;;;;;5028972;28;19932;-86
2022/07/16 10:33:35;;;;;;;;;;;;;;;;;;;;;
2022/07/16 10:36:01;;;;;;;;;;;;;;;;;;5018972;28;19923;-85
2022/07/16 10:38:27;;;;;;;;;;;;;;;;;;5021335;28;20133;-86
2022/07/16 10:40:52;;;;;;;;;;;;;;;;;;5025202;28;19917;-89
2022/07/16 10:43:17;;;;;;;;;;;;;;;;;;5027916;28;19927;-86
2022/07/16 10:45:42;;;;;;;;;;;;;;;;;;5027056;28;19913;-86
2022/07/16 10:48:07;;;;;;;;;;;;;;;;;;5030514;28;20374;-85
2022/07/16 10:50:33;;;;;;;;;;;;;;;;;;5019078;28;19917;-87
2022/07/16 10:52:58;;;;;;;;;;;;;;;;;;5019861;28;20390;-87
2022/07/16 10:55:23;;;;;;;;;;;;;;;;;;5016106;28;19914;-86
2022/07/16 10:57:51;;;;;;;;;;;;;;;;;;5024271;28;20287;-85
2022/07/16 11:00:16;;;;;;;;;;;;;;;;;;5029222;28;20026;-84
2022/07/16 11:02:42;;;;;;;;;;;;;;;;;;5023205;28;19957;-85
2022/07/16 11:05:07;;;;;;;;;;;;;;;;;;5021816;28;19963;-85
2022/07/16 11:07:32;;;;;;;;;;;;;;;;;;5025974;28;19953;-85
2022/07/16 11:09:57;;;;;;;;;;;;;;;;;;5020697;28;20371;-87
2022/07/16 11:12:25;;;;;;;;;;;;;;;;;;5025121;28;19975;-87
2022/07/16 11:14:51;;;;;;;;;;;;;;;;;;5020607;28;20048;-86
2022/07/16 11:17:16;;;;;;;;;;;;;;;;;;5024682;28;19995;-85
2022/07/16 11:19:41;;;;;;;;;;;;;;;;;;5024257;28;19963;-85
2022/07/16 11:22:06;;;;;;;;;;;;;;;;;;5007502;28;20004;-87
2022/07/16 11:24:32;;;;;;;;;;;;;;;;;;5024231;28;19940;-89
2022/07/16 11:26:57;;;;;;;;;;;;;;;;;;5022613;28;20380;-85
2022/07/16 11:29:28;;;;;;;;;;;;;;;;;;5026059;28;19925;-87
2022/07/16 11:31:55;;;;;;;;;;;;;;;;;;5026018;28;19917;-85
2022/07/16 11:34:22;;;;;;;;;;;;;;;;;;5029052;28;19943;-86
2022/07/16 11:36:48;;;;;;;;;;;;;;;;;;5018219;28;19924;-86
2022/07/16 11:39:13;;;;;;;;;;;;;;;;;;5021781;28;20314;-86
2022/07/16 11:41:41;;;;;;;;;;;;;;;;;;5003126;28;20188;-88
2022/07/16 11:44:06;;;;;;;;;;;;;;;;;;5019789;28;20004;-87
2022/07/16 11:46:31;;;;;;;;;;;;;;;;;;5008399;28;20048;-87
2022/07/16 11:48:56;;;;;;;;;;;;;;;;;;5019865;28;19921;-86
2022/07/16 11:51:21;;;;;;;;;;;;;;;;;;5025509;28;19918;-85
2022/07/16 11:53:47;;;;;;;;;;;;;;;;;;5026789;28;19924;-86
2022/07/16 11:56:14;;;;;;;;;;;;;;;;;;5027397;28;19975;-86
2022/07/16 11:58:39;;;;;;;;;;;;;;;;;;5026005;28;20618;-84
2022/07/16 12:01:04;;;;;;;;;;;;;;;;;;5022266;28;20300;-88
2022/07/16 12:03:29;;;;;;;;;;;;;;;;;;5023012;28;19925;-84
2022/07/16 12:05:55;;;;;;;;;;;;;;;;;;5031236;28;20381;-90
2022/07/16 12:08:20;;;;;;;;;;;;;;;;;;5025752;28;19980;-84
2022/07/16 12:10:45;;;;;;;;;;;;;;;;;;5029038;28;19913;-84
2022/07/16 12:13:10;;;;;;;;;;;;;;;;;;5029720;28;19921;-85
2022/07/16 12:15:35;;;;;;;;;;;;;;;;;;5026283;28;19917;-84
2022/07/16 12:18:00;;;;;;;;;;;;;;;;;;5028008;28;19921;-90
2022/07/16 12:20:26;;;;;;;;;;;;;;;;;;5026443;28;19917;-87
2022/07/16 12:22:51;;;;;;;;;;;;;;;;;;5026157;28;19967;-85
2022/07/16 12:25:16;;;;;;;;;;;;;;;;;;5025680;28;19917;-86
2022/07/16 12:27:41;;;;;;;;;;;;;;;;;;5029275;28;19933;-87
2022/07/16 12:30:06;;;;;;;;;;;;;;;;;;5023099;28;20330;-86
2022/07/16 12:32:32;;;;;;;;;;;;;;;;;;5034791;28;19920;-87
2022/07/16 12:34:57;;;;;;;;;;;;;;;;;;5023493;28;20175;-85
2022/07/16 12:37:24;;;;;;;;;;;;;;;;;;5018475;28;19921;-87
2022/07/16 12:39:49;;;;;;;;;;;;;;;;;;5022473;28;20003;-88
2022/07/16 12:42:15;;;;;;;;;;;;;;;;;;5029240;28;20023;-86
2022/07/16 12:44:40;;;;;;;;;;;;;;;;;;5030382;28;19917;-86
2022/07/16 12:47:05;;;;;;;;;;;;;;;;;;5027693;28;19956;-86
2022/07/16 12:49:31;;;;;;;;;;;;;;;;;;5028979;28;19927;-89
2022/07/16 12:51:56;;;;;;;;;;;;;;;;;;5029822;28;19929;-88
2022/07/16 12:54:21;;;;;;;;;;;;;;;;;;5025649;28;20000;-85
2022/07/16 12:59:33;;;;;;;;;;;;;;;;;;5029921;28;20011;-85
2022/07/16 13:01:59;;;;;;;;;;;;;;;;;;5033002;28;19957;-86
2022/07/16 13:04:24;;;;;;;;;;;;;;;;;;5030078;28;19917;-88
2022/07/16 13:06:50;;;;;;;;;;;;;;;;;;5028887;28;20219;-85
2022/07/16 13:09:15;;;;;;;;;;;;;;;;;;5014942;28;19967;-84
2022/07/16 13:11:40;;;;;;;;;;;;;;;;;;5036543;28;20177;-85
2022/07/16 13:14:05;;;;;;;;;;;;;;;;;;5032215;28;20317;-86
2022/07/16 13:16:30;;;;;;;;;;;;;;;;;;5020232;28;20235;-85
2022/07/16 13:18:56;;;;;;;;;;;;;;;;;;5032107;28;19917;-86
2022/07/16 13:21:22;;;;;;;;;;;;;;;;;;5031758;28;20401;-87
2022/07/16 13:23:47;;;;;;;;;;;;;;;;;;5031742;28;20082;-85
2022/07/16 13:26:13;;;;;;;;;;;;;;;;;;5036865;28;19917;-84
2022/07/16 13:28:38;;;;;;;;;;;;;;;;;;5030731;28;19921;-87
2022/07/16 13:31:03;;;;;;;;;;;;;;;;;;5030537;28;19972;-86
2022/07/16 13:33:28;;;;;;;;;;;;;;;;;;5030189;28;19943;-88
2022/07/16 13:35:54;;;;;;;;;;;;;;;;;;5028776;28;19917;-87
2022/07/16 13:38:19;;;;;;;;;;;;;;;;;;5014347;28;21560;-85
2022/07/16 13:40:44;;;;;;;;;;;;;;;;;;5024234;28;19921;-88
2022/07/16 13:43:09;;;;;;;;;;;;;;;;;;5034448;28;19918;-89
2022/07/16 13:45:34;;;;;;;;;;;;;;;;;;5034196;28;20234;-87
2022/07/16 13:48:00;;;;;;;;;;;;;;;;;;5027303;28;19920;-88
2022/07/16 13:50:32;;;;;;;;;;;;;;;;;;5032994;28;19917;-85
2022/07/16 13:52:58;;;;;;;;;;;;;;;;;;5028121;28;19923;-86
2022/07/16 13:55:23;;;;;;;;;;;;;;;;;;5009981;28;20367;-85
2022/07/16 14:00:32;;;;;;;;;;;;;;;;;;5027878;28;19979;-85
2022/07/16 14:02:57;;;;;;;;;;;;;;;;;;5028893;28;19933;-87
2022/07/16 14:05:22;;;;;;;;;;;;;;;;;;5028507;28;19936;-84
2022/07/16 14:07:47;;;;;;;;;;;;;;;;;;5024773;28;20033;-85
2022/07/16 14:10:13;;;;;;;;;;;;;;;;;;5031018;28;19913;-84
2022/07/16 14:12:38;;;;;;;;;;;;;;;;;;5012455;28;19921;-86
2022/07/16 14:15:03;;;;;;;;;;;;;;;;;;5030139;28;19980;-85
2022/07/16 14:17:29;;;;;;;;;;;;;;;;;;5030514;28;19921;-87
2022/07/16 14:19:54;;;;;;;;;;;;;;;;;;5026826;28;19936;-85
2022/07/16 14:22:19;;;;;;;;;;;;;;;;;;5027266;28;19975;-84
2022/07/16 14:24:45;;;;;;;;;;;;;;;;;;5028810;28;20379;-85
2022/07/16 14:27:10;;;;;;;;;;;;;;;;;;5030084;28;19935;-85
2022/07/16 14:29:35;;;;;;;;;;;;;;;;;;5031260;28;20373;-86
2022/07/16 14:32:00;;;;;;;;;;;;;;;;;;5029560;28;19975;-88
2022/07/16 14:34:25;;;;;;;;;;;;;;;;;;5028232;28;19913;-87
2022/07/16 14:36:51;;;;;;;;;;;;;;;;;;5023614;28;19921;-87
2022/07/16 14:39:16;;;;;;;;;;;;;;;;;;5029871;28;20059;-85
2022/07/16 14:41:41;;;;;;;;;;;;;;;;;;5022203;28;19928;-85
2022/07/16 14:44:06;;;;;;;;;;;;;;;;;;5030451;28;19982;-84
2022/07/16 14:46:32;;;;;;;;;;;;;;;;;;5022673;28;19918;-87
2022/07/16 14:48:57;;;;;;;;;;;;;;;;;;5026862;28;19914;-84
2022/07/16 14:51:22;;;;;;;;;;;;;;;;;;5023682;28;20571;-87
2022/07/16 14:53:47;;;;;;;;;;;;;;;;;;5029670;28;19913;-85
2022/07/16 14:56:15;;;;;;;;;;;;;;;;;;5027764;28;19924;-84
2022/07/16 14:58:40;;;;;;;;;;;;;;;;;;5023371;28;20372;-86
2022/07/16 15:01:06;;;;;;;;;;;;;;;;;;5027649;28;19913;-85
2022/07/16 15:03:31;;;;;;;;;;;;;;;;;;5018569;28;19979;-85
2022/07/16 15:05:56;;;;;;;;;;;;;;;;;;5023569;28;19948;-85
2022/07/16 15:08:21;;;;;;;;;;;;;;;;;;5023546;28;20371;-86
2022/07/16 15:10:47;;;;;;;;;;;;;;;;;;5027631;28;19913;-84
2022/07/16 15:13:12;;;;;;;;;;;;;;;;;;5025739;28;19917;-84
2022/07/16 15:15:38;;;;;;;;;;;;;;;;;;5015070;28;19921;-84
2022/07/16 15:18:03;;;;;;;;;;;;;;;;;;5022518;28;19955;-84
2022/07/16 15:20:28;;;;;;;;;;;;;;;;;;5030500;28;20326;-86
2022/07/16 15:22:53;;;;;;;;;;;;;;;;;;5006067;28;19921;-83
2022/07/16 15:25:19;;;;;;;;;;;;;;;;;;5024113;28;19984;-84
2022/07/16 15:27:44;;;;;;;;;;;;;;;;;;5022128;28;20356;-88
2022/07/16 15:30:09;;;;;;;;;;;;;;;;;;5007450;28;19953;-85
2022/07/16 15:32:34;;;;;;;;;;;;;;;;;;5026861;28;19921;-85
2022/07/16 15:35:00;;;;;;;;;;;;;;;;;;5008853;28;19944;-84
2022/07/16 15:37:25;;;;;;;;;;;;;;;;;;5029630;28;19999;-83
2022/07/16 15:39:52;;;;;;;;;;;;;;;;;;5020191;28;20131;-84
2022/07/16 15:42:17;;;;;;;;;;;;;;;;;;5027289;28;20012;-83
2022/07/16 15:44:42;;;;;;;;;;;;;;;;;;5028827;28;20378;-84
2022/07/16 15:47:10;;;;;;;;;;;;;;;;;;5026680;28;19976;-86
2022/07/16 15:49:36;;;;;;;;;;;;;;;;;;5026808;28;20545;-85
2022/07/16 15:52:01;;;;;;;;;;;;;;;;;;5010615;28;19921;-83
2022/07/16 15:54:27;;;;;;;;;;;;;;;;;;5015556;28;19920;-83
2022/07/16 16:22:35;;;;;;;;;;;;;;;;;;5045776;28;20390;-85
2022/07/16 16:25:08;;;;;;;;;;;;;;;;;;5045223;28;20018;-85
2022/07/16 16:27:33;;;;;;;;;;;;;;;;;;5033514;28;19913;-85
2022/07/16 16:30:00;;;;;;;;;;;;;;;;;;5024520;28;19920;-86
2022/07/16 16:32:33;;;;;;;;;;;;;;;;;;5024088;28;19970;-85
2022/07/16 16:35:00;;;;;;;;;;;;;;;;;;5022228;28;19913;-84
2022/07/16 16:40:14;;;;;;;;;;;;;;;;;;4967703;28;19968;-85
2022/07/16 16:42:39;;;;;;;;;;;;;;;;;;5008834;28;20371;-85
2022/07/16 16:45:28;;;;;;;;;;;;;;;;;;5005472;28;19925;-83
2022/07/16 16:50:41;;;;;;;;;;;;;;;;;;4917257;28;19952;-85
2022/07/16 16:53:09;;;;;;;;;;;;;;;;;;4982152;28;20372;-84
2022/07/16 16:58:38;;;;;;;;;;;;;;;;;;4928963;29;19919;-84
2022/07/16 17:01:19;;;;;;;;;;;;;;;;;;;;;
2022/07/16 17:06:42;;;;;;;;;;;;;;;;;;4907329;29;20371;-83
2022/07/16 17:09:27;;;;;;;;;;;;;;;;;;;;;
2022/07/16 17:12:08;;;;;;;;;;;;;;;;;;;;;
2022/07/16 17:14:42;;;;;;;;;;;;;;;;;;4986596;28;19921;-84
2022/07/16 17:17:28;;;;;;;;;;;;;;;;;;4981072;28;19953;-84
2022/07/16 17:22:50;;;;;;;;;;;;;;;;;;4942750;28;20425;-85
2022/07/16 17:25:23;;;;;;;;;;;;;;;;;;4973189;28;19913;-83
2022/07/16 17:27:48;;;;;;;;;;;;;;;;;;4985745;28;19913;-83
2022/07/16 17:30:13;;;;;;;;;;;;;;;;;;4981137;28;19924;-85
2022/07/16 17:32:41;;;;;;;;;;;;;;;;;;4989517;28;19920;-84
2022/07/16 17:35:25;;;;;;;;;;;;;;;;;;;;;
2022/07/16 17:37:50;;;;;;;;;;;;;;;;;;4979263;28;19944;-84